Time;durP1;ratioP1;P1;durP2;ratioP2;P2;SDS_P1;SDS_P2;PMS_P1;PMS_P2;Temp;Humidity;BMP_temperature;BMP_pressure;BME280_temperature;BME280_humidity;BME280_pressure;Samples;Min_cycle;Max_cycle;Signal;HPM_P1;HPM_P2
2024/01/27 00:00:16;;;;;;;16.30;3.60;;;;;;;5.48;99.70;100923.65;180008;1258;46042;-64
2024/01/27 00:04:39;;;;;;;8.50;2.10;;;;;;;5.57;98.10;100941.85;180088;1258;44803;-64
2024/01/27 00:08:43;;;;;;;7.60;2.90;;;;;;;5.73;95.37;100952.12;180037;1259;44829;-64
2024/01/27 00:12:50;;;;;;;9.80;3.50;;;;;;;5.78;95.26;100954.38;180100;1259;45282;-64
2024/01/27 00:16:54;;;;;;;7.90;2.80;;;;;;;5.77;95.21;100965.30;180053;1261;58061;-64
2024/01/27 00:20:57;;;;;;;8.90;1.80;;;;;;;5.76;95.41;100973.81;180170;1259;45086;-64
2024/01/27 00:25:01;;;;;;;6.00;2.60;;;;;;;5.73;93.80;100981.16;180123;1259;45975;-65
2024/01/27 00:29:04;;;;;;;15.00;4.60;;;;;;;5.81;92.84;100983.40;180055;1257;45067;-64
2024/01/27 00:33:07;;;;;;;21.40;3.10;;;;;;;5.79;92.40;100984.58;180139;1257;43780;-64
2024/01/27 00:37:10;;;;;;;10.50;1.80;;;;;;;5.75;92.93;100989.02;180201;1259;57852;-64
2024/01/27 00:41:19;;;;;;;11.30;2.40;;;;;;;5.69;93.82;100992.80;180103;1258;44563;-64
2024/01/27 00:45:26;;;;;;;10.70;1.80;;;;;;;5.66;93.49;100998.95;180141;1257;43555;-64
2024/01/27 00:49:29;;;;;;;8.80;3.00;;;;;;;5.66;94.85;101006.67;180189;1259;46088;-65
2024/01/27 00:53:33;;;;;;;4.50;1.30;;;;;;;5.67;94.55;101004.02;180089;1259;43569;-64
2024/01/27 00:57:39;;;;;;;5.90;2.70;;;;;;;5.60;94.91;101005.73;180162;1258;58177;-65
2024/01/27 01:01:42;;;;;;;7.60;2.20;;;;;;;5.56;94.61;101008.77;180169;1258;46019;-65
2024/01/27 01:05:46;;;;;;;7.00;2.90;;;;;;;5.56;94.70;101002.21;180186;1258;46097;-64
2024/01/27 01:09:54;;;;;;;11.40;3.40;;;;;;;5.53;95.95;101021.04;180162;1259;43628;-64
2024/01/27 01:13:58;;;;;;;8.70;2.60;;;;;;;5.44;96.63;101016.35;180255;1260;45911;-65
2024/01/27 01:18:01;;;;;;;13.70;2.40;;;;;;;5.50;95.83;101014.50;180219;1258;58748;-64
2024/01/27 01:22:05;;;;;;;6.90;1.70;;;;;;;5.45;96.28;101019.50;180202;1261;46132;-64
2024/01/27 01:26:12;;;;;;;7.20;1.80;;;;;;;5.41;94.86;101021.07;180304;1259;46310;-64
2024/01/27 01:30:16;;;;;;;4.30;1.90;;;;;;;5.41;95.40;101020.89;180125;1257;45609;-64
2024/01/27 01:34:20;;;;;;;12.60;3.80;;;;;;;5.45;96.45;101021.93;180156;1259;46082;-64
2024/01/27 01:38:23;;;;;;;14.70;3.20;;;;;;;5.40;96.61;101022.35;180271;1259;59579;-65
2024/01/27 01:42:27;;;;;;;9.10;3.00;;;;;;;5.39;96.53;101023.98;180104;1261;44846;-65
2024/01/27 01:46:30;;;;;;;6.40;2.30;;;;;;;5.37;96.69;101024.63;180066;1258;45998;-64
2024/01/27 01:50:34;;;;;;;4.90;2.40;;;;;;;5.40;95.84;101018.68;180388;1257;44730;-64
2024/01/27 01:54:37;;;;;;;8.60;3.10;;;;;;;5.43;94.69;101012.02;180230;1259;45971;-64
2024/01/27 01:58:44;;;;;;;6.90;2.50;;;;;;;5.40;94.32;101009.70;180238;1259;57956;-63
2024/01/27 02:02:48;;;;;;;10.90;3.00;;;;;;;5.32;94.01;101011.50;180138;1260;46565;-64
2024/01/27 02:06:51;;;;;;;13.70;2.30;;;;;;;5.27;93.60;101028.27;179969;1257;45481;-64
2024/01/27 02:10:55;;;;;;;6.80;3.60;;;;;;;5.23;93.80;101029.12;180281;1257;45985;-64
2024/01/27 02:14:58;;;;;;;10.00;2.00;;;;;;;5.26;92.94;101030.91;180290;1260;44301;-64
2024/01/27 02:19:02;;;;;;;38.60;5.60;;;;;;;5.26;92.80;101028.48;180289;1259;58725;-64
2024/01/27 02:23:08;;;;;;;3.90;2.50;;;;;;;5.30;90.80;101033.56;180267;1259;44966;-63
2024/01/27 02:27:12;;;;;;;10.40;3.90;;;;;;;5.36;90.07;101039.61;180349;1259;45009;-64
2024/01/27 02:31:16;;;;;;;11.30;1.90;;;;;;;5.39;90.63;101040.36;180213;1259;46202;-63
2024/01/27 02:35:20;;;;;;;9.10;2.40;;;;;;;5.32;90.78;101040.85;180188;1259;46011;-64
2024/01/27 02:39:23;;;;;;;4.60;1.80;;;;;;;5.31;90.43;101037.40;180154;1258;58921;-63
2024/01/27 02:43:27;;;;;;;10.50;2.20;;;;;;;5.28;89.73;101039.63;180335;1258;43972;-63
2024/01/27 02:47:31;;;;;;;12.10;2.50;;;;;;;5.17;90.55;101049.13;180356;1259;43996;-64
2024/01/27 02:51:34;;;;;;;4.40;2.20;;;;;;;5.13;88.61;101025.40;180281;1259;45917;-62
2024/01/27 02:55:37;;;;;;;9.70;2.50;;;;;;;5.10;87.91;101032.58;180242;1258;45949;-62
2024/01/27 02:59:41;;;;;;;10.70;1.90;;;;;;;5.13;88.93;101029.45;180221;1257;57881;-63
2024/01/27 03:03:44;;;;;;;19.40;4.20;;;;;;;5.05;89.56;101042.10;180318;1262;46753;-63
2024/01/27 03:07:48;;;;;;;28.80;3.70;;;;;;;4.96;90.89;101046.22;180457;1260;45889;-63
2024/01/27 03:11:51;;;;;;;9.20;3.90;;;;;;;4.96;90.19;101062.23;180298;1257;45895;-63
2024/01/27 03:15:56;;;;;;;10.30;3.10;;;;;;;4.78;90.71;101067.25;180264;1257;45046;-63
2024/01/27 03:19:59;;;;;;;4.20;1.80;;;;;;;4.73;89.87;101071.14;180238;1260;58430;-63
2024/01/27 03:24:12;;;;;;;7.10;2.00;;;;;;;4.74;90.98;101078.14;180313;1261;46152;-63
2024/01/27 03:28:16;;;;;;;10.00;2.40;;;;;;;4.71;92.15;101100.77;180050;1257;339949;-63
2024/01/27 03:32:25;;;;;;;6.00;2.40;;;;;;;4.67;92.54;101097.77;180412;1257;43773;-63
2024/01/27 03:36:30;;;;;;;12.70;2.50;;;;;;;4.76;91.88;101093.73;180172;1257;44736;-63
2024/01/27 03:40:34;;;;;;;5.60;2.40;;;;;;;4.76;92.97;101096.52;180294;1257;59041;-63
2024/01/27 03:44:38;;;;;;;6.40;1.80;;;;;;;4.73;93.45;101112.45;180118;1258;43948;-63
2024/01/27 03:48:45;;;;;;;8.20;1.80;;;;;;;4.72;93.55;101116.68;180334;1258;46064;-62
2024/01/27 03:52:49;;;;;;;8.70;3.00;;;;;;;4.73;93.49;101127.20;180333;1257;46112;-62
2024/01/27 03:56:52;;;;;;;8.30;2.90;;;;;;;4.78;92.99;101141.77;180211;1259;45972;-62
2024/01/27 04:00:57;;;;;;;8.50;3.50;;;;;;;4.79;92.54;101148.03;180320;1257;58398;-63
2024/01/27 04:05:01;;;;;;;12.80;2.80;;;;;;;4.82;91.85;101136.13;180271;1257;45983;-63
2024/01/27 04:09:09;;;;;;;6.60;2.50;;;;;;;4.85;91.74;101148.10;180235;1259;43714;-63
2024/01/27 04:13:13;;;;;;;5.90;3.20;;;;;;;4.83;92.55;101140.14;180290;1257;44885;-63
2024/01/27 04:17:17;;;;;;;19.50;3.40;;;;;;;4.81;91.54;101139.52;180399;1261;43871;-63
2024/01/27 04:21:20;;;;;;;14.20;4.50;;;;;;;4.79;92.33;101139.60;180303;1257;60794;-62
2024/01/27 04:25:24;;;;;;;6.40;2.80;;;;;;;4.79;91.30;101147.70;180424;1258;43956;-62
2024/01/27 04:29:27;;;;;;;5.60;3.00;;;;;;;4.76;90.35;101139.55;180264;1260;45882;-63
2024/01/27 04:33:37;;;;;;;8.30;2.90;;;;;;;4.70;92.21;101143.48;180188;1258;44370;-62
2024/01/27 04:37:41;;;;;;;12.00;3.20;;;;;;;4.65;92.37;101139.30;180279;1257;43570;-63
2024/01/27 04:41:44;;;;;;;9.20;2.60;;;;;;;4.65;92.60;101130.52;180250;1260;58380;-62
2024/01/27 04:45:51;;;;;;;12.40;3.60;;;;;;;4.66;91.95;101119.95;180312;1259;44936;-62
2024/01/27 04:49:55;;;;;;;7.70;2.50;;;;;;;4.57;91.99;101132.48;180222;1262;44736;-63
2024/01/27 04:54:03;;;;;;;12.10;4.00;;;;;;;4.48;91.88;101115.10;180142;1260;46063;-62
2024/01/27 04:58:07;;;;;;;22.80;4.10;;;;;;;4.44;91.99;101110.70;180242;1257;43850;-63
2024/01/27 05:02:13;;;;;;;10.20;4.10;;;;;;;4.37;92.44;101118.73;180235;1260;58539;-62
2024/01/27 05:06:17;;;;;;;10.40;3.80;;;;;;;4.28;92.72;101118.04;180161;1261;45992;-62
2024/01/27 05:10:22;;;;;;;9.10;2.90;;;;;;;4.26;92.67;101099.17;180222;1257;45969;-62
2024/01/27 05:14:25;;;;;;;11.50;3.40;;;;;;;4.18;93.50;101119.70;180220;1258;46062;-62
2024/01/27 05:18:29;;;;;;;11.70;3.00;;;;;;;4.14;92.76;101121.27;180143;1260;45128;-62
2024/01/27 05:22:33;;;;;;;7.90;2.40;;;;;;;4.14;92.93;101140.41;180174;1257;58931;-62
2024/01/27 05:26:36;;;;;;;6.00;3.00;;;;;;;4.05;93.75;101154.11;180250;1257;43737;-63
2024/01/27 05:30:43;;;;;;;8.60;2.90;;;;;;;4.01;94.11;101141.80;180138;1257;45016;-62
2024/01/27 05:34:46;;;;;;;9.10;2.60;;;;;;;4.03;93.98;101140.66;180280;1259;45929;-62
2024/01/27 05:38:54;;;;;;;16.90;4.00;;;;;;;4.02;93.89;101134.73;180432;1258;45302;-62
2024/01/27 05:43:24;;;;;;;8.80;2.30;;;;;;;3.99;95.39;101151.35;180221;1261;58588;-63
2024/01/27 05:47:30;;;;;;;10.90;3.50;;;;;;;3.94;95.31;101140.52;180439;1257;43815;-63
2024/01/27 05:51:35;;;;;;;8.70;3.60;;;;;;;4.02;95.07;101157.40;180146;1259;45991;-62
2024/01/27 05:55:39;;;;;;;7.90;2.80;;;;;;;3.98;95.30;101163.00;180372;1257;43785;-63
2024/01/27 05:59:44;;;;;;;6.00;2.30;;;;;;;4.09;94.94;101167.11;180361;1260;43947;-62
2024/01/27 06:03:49;;;;;;;7.10;4.50;;;;;;;4.05;94.92;101168.83;180277;1257;60024;-62
2024/01/27 06:07:53;;;;;;;23.50;4.90;;;;;;;4.11;94.65;101164.76;180282;1257;45955;-63
2024/01/27 06:12:01;;;;;;;10.70;3.80;;;;;;;4.13;94.33;101159.92;180059;1257;43545;-61
2024/01/27 06:16:11;;;;;;;10.30;2.20;;;;;;;4.21;94.47;101178.55;180265;1257;44165;-62
2024/01/27 06:20:17;;;;;;;9.30;3.70;;;;;;;4.17;94.47;101182.40;180166;1257;44917;-62
2024/01/27 06:24:22;;;;;;;12.80;3.30;;;;;;;4.22;94.17;101183.44;180443;1257;59523;-62
2024/01/27 06:28:27;;;;;;;10.60;2.80;;;;;;;4.26;93.96;101166.96;180293;1261;46116;-62
2024/01/27 06:32:32;;;;;;;15.60;3.60;;;;;;;4.23;93.80;101164.27;180466;1258;43949;-63
2024/01/27 06:37:01;;;;;;;8.30;3.90;;;;;;;4.28;93.81;101177.77;180222;1258;45898;-62
2024/01/27 06:41:04;;;;;;;11.50;3.60;;;;;;;4.17;94.43;101187.52;180201;1257;44396;-62
2024/01/27 06:45:08;;;;;;;8.70;3.00;;;;;;;4.20;94.63;101203.56;180162;1261;57685;-62
2024/01/27 06:49:12;;;;;;;4.80;1.80;;;;;;;4.07;94.84;101226.35;180320;1259;44894;-62
2024/01/27 06:53:20;;;;;;;14.00;3.10;;;;;;;4.13;94.33;101217.16;180435;1258;43827;-62
2024/01/27 06:57:26;;;;;;;15.70;2.20;;;;;;;4.20;93.84;101216.19;180245;1259;44768;-62
2024/01/27 07:01:29;;;;;;;14.00;3.50;;;;;;;4.20;93.75;101224.43;180160;1259;43775;-63
2024/01/27 07:05:38;;;;;;;10.00;2.90;;;;;;;4.26;94.76;101224.34;180210;1259;57452;-62
2024/01/27 07:09:43;;;;;;;9.30;3.30;;;;;;;4.24;95.48;101221.45;180024;1259;45929;-62
2024/01/27 07:13:46;;;;;;;11.20;2.20;;;;;;;4.25;95.23;101222.30;180258;1259;45996;-63
2024/01/27 07:17:54;;;;;;;13.40;4.10;;;;;;;4.29;95.34;101239.88;180276;1258;45031;-62
2024/01/27 07:22:00;;;;;;;9.80;3.40;;;;;;;4.36;95.58;101239.43;180128;1259;44753;-62
2024/01/27 07:26:04;;;;;;;12.20;3.50;;;;;;;4.44;94.75;101250.33;180123;1257;58535;-62
2024/01/27 07:30:11;;;;;;;7.00;3.20;;;;;;;4.55;94.77;101247.43;180147;1258;44917;-62
2024/01/27 07:34:14;;;;;;;21.00;4.20;;;;;;;4.68;94.53;101275.02;180278;1258;45940;-62
2024/01/27 07:38:18;;;;;;;16.50;3.80;;;;;;;4.73;94.01;101286.07;179999;1258;44856;-62
2024/01/27 07:42:21;;;;;;;10.70;5.00;;;;;;;4.80;94.03;101288.05;180084;1257;46025;-62
2024/01/27 07:46:25;;;;;;;16.80;2.80;;;;;;;4.83;93.46;101294.45;180193;1258;58085;-62
2024/01/27 07:50:28;;;;;;;6.30;2.90;;;;;;;4.84;93.90;101295.44;180217;1258;46029;-62
2024/01/27 07:54:32;;;;;;;15.10;4.50;;;;;;;4.82;94.56;101311.73;180195;1257;44943;-62
2024/01/27 07:58:35;;;;;;;7.40;3.60;;;;;;;4.84;94.65;101312.67;180257;1259;44518;-63
2024/01/27 08:02:41;;;;;;;4.40;3.20;;;;;;;4.90;94.15;101296.43;180262;1258;43567;-62
2024/01/27 08:06:53;;;;;;;7.10;3.20;;;;;;;4.95;93.99;101294.30;180263;1258;60336;-63
2024/01/27 08:10:56;;;;;;;7.50;4.10;;;;;;;4.97;93.61;101310.20;180102;1257;44985;-63
2024/01/27 08:15:00;;;;;;;7.10;2.60;;;;;;;4.99;93.17;101315.56;180176;1259;43663;-63
2024/01/27 08:19:04;;;;;;;10.40;3.70;;;;;;;5.02;93.43;101311.42;180265;1257;45894;-62
2024/01/27 08:23:09;;;;;;;4.90;3.60;;;;;;;5.08;93.38;101296.41;180364;1257;44736;-62
2024/01/27 08:27:12;;;;;;;6.40;3.40;;;;;;;5.11;91.47;101309.96;180326;1258;58432;-63
2024/01/27 08:31:17;;;;;;;10.10;2.70;;;;;;;5.19;90.94;101332.15;180207;1257;43906;-63
2024/01/27 08:35:20;;;;;;;13.20;4.90;;;;;;;5.33;91.06;101347.05;180195;1257;43571;-63
2024/01/27 08:39:24;;;;;;;13.40;4.90;;;;;;;5.33;91.25;101357.61;180127;1257;45866;-62
2024/01/27 08:43:27;;;;;;;15.60;4.20;;;;;;;5.35;90.27;101367.01;180171;1259;45921;-62
2024/01/27 08:47:37;;;;;;;13.60;4.20;;;;;;;5.36;89.32;101364.70;180172;1257;58458;-62
2024/01/27 08:51:41;;;;;;;12.30;3.70;;;;;;;5.35;89.50;101385.67;180142;1258;43791;-63
2024/01/27 08:55:45;;;;;;;19.10;6.40;;;;;;;5.38;89.76;101387.12;180263;1261;45901;-63
2024/01/27 08:59:48;;;;;;;10.60;3.70;;;;;;;5.35;90.50;101393.24;180104;1257;43893;-62
2024/01/27 09:04:04;;;;;;;16.10;6.10;;;;;;;5.33;89.50;101403.70;180237;1258;45952;-62
2024/01/27 09:08:07;;;;;;;12.50;3.40;;;;;;;5.45;88.95;101402.66;180150;1257;58727;-62
2024/01/27 09:12:13;;;;;;;9.50;2.60;;;;;;;5.45;88.35;101400.20;180027;1257;44932;-63
2024/01/27 09:16:16;;;;;;;14.20;4.50;;;;;;;5.47;89.76;101402.40;180168;1258;44314;-63
2024/01/27 09:20:20;;;;;;;14.00;4.20;;;;;;;5.53;90.22;101404.77;180069;1257;43946;-62
2024/01/27 09:24:23;;;;;;;12.40;2.40;;;;;;;5.62;89.72;101420.78;180304;1259;43919;-62
2024/01/27 09:28:27;;;;;;;7.20;1.90;;;;;;;5.69;89.19;101415.04;180183;1257;58451;-62
2024/01/27 09:32:31;;;;;;;12.50;2.70;;;;;;;5.82;87.92;101406.52;180236;1257;44707;-62
2024/01/27 09:36:35;;;;;;;9.90;3.80;;;;;;;5.90;87.24;101417.46;180342;1257;46714;-62
2024/01/27 09:40:39;;;;;;;13.70;2.70;;;;;;;5.87;87.90;101425.69;180258;1258;43725;-62
2024/01/27 09:44:49;;;;;;;11.70;3.80;;;;;;;5.86;88.56;101424.31;180243;1259;44976;-62
2024/01/27 09:53:55;;;;;;;10.50;3.40;;;;;;;5.94;87.95;101452.34;180224;1258;45958;-62
2024/01/27 09:57:59;;;;;;;11.70;3.50;;;;;;;5.96;86.61;101454.17;180312;1257;45981;-62
2024/01/27 10:02:06;;;;;;;22.20;9.90;;;;;;;5.98;87.65;101459.20;180481;1257;43560;-62
2024/01/27 10:06:11;;;;;;;15.10;9.50;;;;;;;6.03;88.75;101457.05;180192;1257;43616;-63
2024/01/27 10:10:14;;;;;;;12.00;5.30;;;;;;;6.09;87.39;101457.86;180339;1257;59997;-62
2024/01/27 10:14:19;;;;;;;5.20;2.50;;;;;;;6.14;87.07;101455.55;180420;1257;46003;-62
2024/01/27 10:18:22;;;;;;;7.90;3.00;;;;;;;6.18;86.47;101466.45;180199;1259;44376;-63
2024/01/27 10:22:27;;;;;;;17.00;3.80;;;;;;;6.19;87.72;101471.53;180262;1258;43877;-62
2024/01/27 10:26:32;;;;;;;12.40;3.20;;;;;;;6.18;87.49;101470.14;179381;1254;92253;-80
2024/01/27 10:30:36;;;;;;;8.00;2.60;;;;;;;6.20;87.82;101458.25;178577;1257;59534;-80
2024/01/27 10:34:39;;;;;;;5.50;2.30;;;;;;;6.35;87.43;101479.11;177701;1259;46012;-80
2024/01/27 10:38:42;;;;;;;10.00;4.20;;;;;;;6.37;85.69;101470.91;179161;1256;45913;-79
2024/01/27 10:42:46;;;;;;;31.00;14.60;;;;;;;6.47;86.59;101476.77;178809;1256;46188;-79
2024/01/27 10:46:49;;;;;;;12.80;2.90;;;;;;;6.64;84.85;101478.48;178749;1257;45971;-80
2024/01/27 10:50:53;;;;;;;66.30;29.10;;;;;;;6.63;82.37;101479.95;179555;1256;58303;-80
2024/01/27 10:55:02;;;;;;;24.40;10.50;;;;;;;6.60;82.33;101485.89;179176;1256;46029;-80
2024/01/27 10:59:09;;;;;;;26.00;10.80;;;;;;;6.59;80.34;101489.29;179772;1256;45992;-80
2024/01/27 11:03:12;;;;;;;15.90;6.10;;;;;;;6.68;80.92;101477.27;179272;1256;46002;-80
2024/01/27 11:07:19;;;;;;;6.20;3.80;;;;;;;6.77;82.35;101469.06;180193;1256;46020;-80
2024/01/27 11:11:22;;;;;;;10.40;3.00;;;;;;;6.74;81.76;101468.35;178889;1259;57985;-80
2024/01/27 11:15:25;;;;;;;13.10;3.60;;;;;;;6.78;81.52;101477.31;180677;1256;44154;-80
2024/01/27 11:19:28;;;;;;;7.80;3.10;;;;;;;6.81;83.11;101473.65;179124;1256;44535;-80
2024/01/27 11:23:38;;;;;;;13.40;6.40;;;;;;;6.87;82.43;101496.48;179443;1256;45614;-80
2024/01/27 11:27:43;;;;;;;12.80;3.60;;;;;;;6.93;81.68;101508.88;179580;1256;46121;-80
2024/01/27 11:31:48;;;;;;;11.60;3.90;;;;;;;7.06;80.96;101502.10;178316;1257;58202;-81
2024/01/27 11:36:05;;;;;;;14.50;5.80;;;;;;;7.05;80.57;101511.67;179591;1256;46074;-80
2024/01/27 11:40:09;;;;;;;11.00;3.30;;;;;;;7.10;81.24;101512.15;180082;1256;46168;-80
2024/01/27 11:44:13;;;;;;;3.00;2.10;;;;;;;7.21;81.85;101513.23;179279;1256;44107;-80
2024/01/27 11:48:16;;;;;;;9.00;3.60;;;;;;;7.26;81.83;101514.54;178898;1256;46106;-80
2024/01/27 11:52:20;;;;;;;10.10;3.50;;;;;;;7.20;80.72;101505.88;178707;1256;59550;-79
2024/01/27 11:56:25;;;;;;;25.00;8.00;;;;;;;7.17;79.76;101515.69;177831;1256;46128;-80
2024/01/27 12:00:29;;;;;;;12.70;3.90;;;;;;;7.22;80.30;101507.69;179487;1256;46133;-80
2024/01/27 12:04:32;;;;;;;46.30;20.00;;;;;;;7.31;81.37;101498.45;178254;1256;46092;-80
2024/01/27 12:08:36;;;;;;;20.00;10.50;;;;;;;7.52;80.76;101511.39;178093;1256;46121;-80
2024/01/27 12:12:39;;;;;;;9.90;5.10;;;;;;;7.63;81.26;101516.30;178508;1256;59566;-81
2024/01/27 12:16:44;;;;;;;10.40;4.90;;;;;;;7.62;79.31;101515.14;178637;1256;46117;-80
2024/01/27 12:20:48;;;;;;;14.50;3.30;;;;;;;7.51;80.15;101509.14;177904;1256;46036;-79
2024/01/27 12:24:52;;;;;;;7.90;2.90;;;;;;;7.53;80.06;101526.48;178782;1256;46088;-80
2024/01/27 12:28:56;;;;;;;11.50;3.80;;;;;;;7.50;79.88;101514.86;178983;1256;45997;-80
2024/01/27 12:33:00;;;;;;;7.10;3.80;;;;;;;7.43;81.20;101531.02;178783;1260;60104;-79
2024/01/27 12:37:04;;;;;;;14.50;5.70;;;;;;;7.35;81.43;101537.62;177808;1256;46138;-80
2024/01/27 12:41:07;;;;;;;10.30;4.70;;;;;;;7.36;82.79;101536.87;178172;1256;46085;-79
2024/01/27 12:45:10;;;;;;;10.60;4.90;;;;;;;7.33;82.31;101540.16;178761;1256;46135;-80
2024/01/27 12:49:13;;;;;;;11.60;3.70;;;;;;;7.29;82.85;101540.55;179576;1256;45942;-80
2024/01/27 12:53:17;;;;;;;13.30;4.40;;;;;;;7.25;82.88;101554.52;179481;1258;58643;-80
2024/01/27 12:57:20;;;;;;;18.80;5.60;;;;;;;7.23;82.91;101560.95;179427;1256;46111;-80
2024/01/27 13:01:24;;;;;;;17.90;4.80;;;;;;;7.17;82.69;101562.80;178458;1256;45997;-79
2024/01/27 13:05:29;;;;;;;14.50;4.00;;;;;;;7.19;82.96;101566.25;178366;1259;46253;-79
2024/01/27 13:09:32;;;;;;;18.70;5.40;;;;;;;7.20;83.33;101578.89;179894;1256;45476;-80
2024/01/27 13:13:36;;;;;;;21.40;7.00;;;;;;;7.18;82.88;101574.41;178541;1256;57779;-80
2024/01/27 13:17:40;;;;;;;25.30;6.60;;;;;;;7.26;85.06;101584.27;178311;1256;46021;-80
2024/01/27 13:21:43;;;;;;;20.80;6.10;;;;;;;7.16;84.51;101600.45;179586;1256;45992;-80
2024/01/27 13:25:47;;;;;;;19.80;4.80;;;;;;;7.17;85.66;101607.98;180858;1256;44243;-80
2024/01/27 13:30:10;;;;;;;20.10;6.10;;;;;;;7.12;86.73;101611.73;178019;1256;44171;-80
2024/01/27 13:34:14;;;;;;;10.50;2.90;;;;;;;7.09;86.77;101613.83;180456;1256;59503;-80
2024/01/27 13:38:23;;;;;;;18.20;5.00;;;;;;;7.07;86.92;101618.14;181151;1256;44015;-80
2024/01/27 13:42:26;;;;;;;12.50;4.80;;;;;;;7.01;87.27;101623.88;179516;1256;43934;-79
2024/01/27 13:46:29;;;;;;;16.10;6.00;;;;;;;7.14;87.54;101622.21;178308;1256;46099;-80
2024/01/27 13:50:33;;;;;;;14.50;5.60;;;;;;;7.14;87.30;101631.40;180370;1256;44164;-79
2024/01/27 13:54:36;;;;;;;12.10;4.80;;;;;;;7.11;87.17;101629.97;180848;1256;59746;-80
2024/01/27 13:58:40;;;;;;;11.90;3.90;;;;;;;7.03;88.49;101631.54;178955;1256;46179;-80
2024/01/27 14:02:43;;;;;;;30.60;6.50;;;;;;;7.00;88.73;101642.60;180370;1255;43900;-79
2024/01/27 14:06:47;;;;;;;17.60;5.00;;;;;;;6.95;87.76;101641.77;179212;1257;46030;-81
2024/01/27 14:10:52;;;;;;;15.20;4.50;;;;;;;6.91;88.63;101642.46;179900;1256;43921;-79
2024/01/27 14:15:04;;;;;;;17.00;7.20;;;;;;;6.96;89.14;101653.73;179085;1256;58073;-80
2024/01/27 14:19:07;;;;;;;17.70;6.00;;;;;;;6.94;89.84;101646.23;178890;1256;46039;-80
2024/01/27 14:23:11;;;;;;;11.90;5.20;;;;;;;6.89;88.66;101658.08;179857;1256;44394;-80
2024/01/27 14:27:14;;;;;;;15.00;4.80;;;;;;;6.86;89.75;101664.91;179194;1256;44087;-79
2024/01/27 14:31:18;;;;;;;16.50;5.50;;;;;;;6.84;89.35;101668.88;179590;1256;46114;-80
2024/01/27 14:35:21;;;;;;;17.30;5.00;;;;;;;6.83;90.05;101672.63;179367;1256;59257;-80
2024/01/27 14:39:24;;;;;;;11.00;4.00;;;;;;;6.70;91.16;101677.96;177974;1256;46067;-79
2024/01/27 14:43:27;;;;;;;16.20;5.10;;;;;;;6.68;91.34;101682.79;178533;1259;46024;-79
2024/01/27 14:47:30;;;;;;;11.10;3.80;;;;;;;6.74;91.17;101695.59;180416;1256;44826;-80
2024/01/27 14:51:35;;;;;;;11.00;4.40;;;;;;;6.59;93.11;101695.35;177021;1257;46020;-79
2024/01/27 14:55:38;;;;;;;9.00;2.80;;;;;;;6.55;93.95;101703.23;178928;1256;59125;-80
2024/01/27 14:59:41;;;;;;;23.30;5.80;;;;;;;6.53;93.83;101714.46;180024;1256;46020;-79
2024/01/27 15:03:44;;;;;;;11.00;4.40;;;;;;;6.49;93.31;101713.23;178040;1257;46019;-79
2024/01/27 15:07:48;;;;;;;12.00;5.60;;;;;;;6.52;93.31;101722.27;177732;1256;46210;-79
2024/01/27 15:11:52;;;;;;;11.50;4.50;;;;;;;6.51;93.22;101723.34;180771;1256;43845;-80
2024/01/27 15:15:55;;;;;;;11.00;4.10;;;;;;;6.46;92.82;101726.02;180316;1257;57509;-80
2024/01/27 15:19:59;;;;;;;17.10;4.80;;;;;;;6.47;93.11;101735.49;180020;1256;43916;-80
2024/01/27 15:24:02;;;;;;;10.90;5.00;;;;;;;6.41;94.61;101747.34;181205;1255;44303;-80
2024/01/27 15:28:07;;;;;;;6.50;3.00;;;;;;;6.33;94.80;101750.17;180877;1256;201779;-80
2024/01/27 15:32:10;;;;;;;9.10;5.00;;;;;;;6.26;95.21;101755.20;179997;1257;45249;-81
2024/01/27 15:36:14;;;;;;;15.30;5.20;;;;;;;6.30;95.29;101767.70;178535;1257;59135;-80
2024/01/27 15:40:17;;;;;;;9.90;5.40;;;;;;;6.25;96.53;101775.67;179734;1258;46092;-80
2024/01/27 15:44:20;;;;;;;7.70;4.90;;;;;;;6.19;97.45;101791.06;179793;1256;44107;-80
2024/01/27 15:48:23;;;;;;;9.50;4.80;;;;;;;6.13;98.22;101797.09;179119;1256;44939;-80
2024/01/27 15:52:26;;;;;;;12.40;3.80;;;;;;;6.18;98.30;101803.40;178945;1256;46109;-80
2024/01/27 15:56:30;;;;;;;11.60;6.00;;;;;;;6.14;98.59;101803.56;178856;1256;57155;-80
2024/01/27 16:00:33;;;;;;;17.30;5.20;;;;;;;6.10;99.07;101814.13;179296;1256;45975;-82
2024/01/27 16:04:36;;;;;;;12.40;6.70;;;;;;;6.01;99.75;101819.19;178978;1255;46004;-81
2024/01/27 16:08:39;;;;;;;17.00;4.60;;;;;;;5.96;100.00;101828.73;179110;1256;46004;-81
2024/01/27 16:12:43;;;;;;;12.70;5.20;;;;;;;5.82;100.00;101832.93;179841;1256;46025;-81
2024/01/27 16:16:46;;;;;;;22.30;6.40;;;;;;;5.79;100.00;101831.78;180769;1256;58066;-82
2024/01/27 16:20:49;;;;;;;14.80;5.40;;;;;;;5.79;100.00;101833.56;179790;1256;44065;-81
2024/01/27 16:24:53;;;;;;;12.00;5.10;;;;;;;5.72;100.00;101842.80;180242;1256;45994;-81
2024/01/27 16:28:56;;;;;;;11.70;6.40;;;;;;;5.67;100.00;101850.89;179490;1256;44081;-81
2024/01/27 16:32:59;;;;;;;16.90;6.50;;;;;;;5.67;100.00;101849.66;179017;1256;46017;-80
2024/01/27 16:37:02;;;;;;;23.30;8.50;;;;;;;5.68;100.00;101853.30;179979;1256;59317;-80
2024/01/27 16:41:06;;;;;;;13.00;5.50;;;;;;;5.59;100.00;101860.69;179537;1256;44216;-80
2024/01/27 16:45:09;;;;;;;21.10;7.70;;;;;;;5.53;100.00;101868.27;179971;1257;46137;-81
2024/01/27 16:49:12;;;;;;;15.30;6.60;;;;;;;5.52;100.00;101872.52;179495;1256;46109;-82
2024/01/27 16:53:16;;;;;;;18.60;7.60;;;;;;;5.60;100.00;101871.55;178760;1257;46121;-83
2024/01/27 16:57:19;;;;;;;5.80;4.30;;;;;;;5.67;100.00;101873.94;179238;1256;57908;-84
2024/01/27 17:01:23;;;;;;;13.30;5.90;;;;;;;5.65;100.00;101880.19;178239;1260;46109;-84
2024/01/27 17:05:27;;;;;;;13.80;5.20;;;;;;;5.64;100.00;101889.20;178612;1257;46000;-84
2024/01/27 17:09:30;;;;;;;10.80;4.70;;;;;;;5.65;100.00;101898.64;177920;1257;46250;-83
2024/01/27 17:13:33;;;;;;;11.00;5.30;;;;;;;5.66;100.00;101906.89;178529;1256;44107;-84
2024/01/27 17:17:37;;;;;;;12.40;4.70;;;;;;;5.67;100.00;101908.44;178100;1257;57887;-83
2024/01/27 17:21:40;;;;;;;12.60;4.80;;;;;;;5.69;100.00;101909.61;177501;1256;46115;-82
2024/01/27 17:25:45;;;;;;;12.30;5.80;;;;;;;5.69;100.00;101919.83;177938;1256;45994;-83
2024/01/27 17:29:48;;;;;;;13.70;6.10;;;;;;;5.68;100.00;101921.08;178311;1256;46108;-83
2024/01/27 17:33:51;;;;;;;10.50;5.30;;;;;;;5.71;100.00;101922.73;178128;1259;46115;-82
2024/01/27 17:37:55;;;;;;;16.00;7.10;;;;;;;5.71;100.00;101922.91;177752;1256;58340;-83
2024/01/27 17:41:58;;;;;;;12.60;5.40;;;;;;;5.72;100.00;101931.50;177629;1257;46087;-82
2024/01/27 17:46:02;;;;;;;10.70;5.50;;;;;;;5.70;100.00;101934.05;177839;1259;46110;-82
2024/01/27 17:50:06;;;;;;;13.40;6.00;;;;;;;5.75;100.00;101936.52;177553;1257;45927;-83
2024/01/27 17:54:09;;;;;;;17.00;7.20;;;;;;;5.72;100.00;101942.80;177617;1259;46713;-83
2024/01/27 17:58:13;;;;;;;10.00;5.00;;;;;;;5.75;100.00;101937.38;177489;1257;59744;-83
2024/01/27 18:02:16;;;;;;;15.20;6.10;;;;;;;5.74;100.00;101941.29;177752;1257;45952;-83
2024/01/27 18:06:19;;;;;;;14.50;6.80;;;;;;;5.79;100.00;101948.70;177549;1256;46109;-83
2024/01/27 18:10:22;;;;;;;21.20;8.40;;;;;;;5.80;100.00;101946.04;177724;1258;46052;-83
2024/01/27 18:14:25;;;;;;;12.60;5.60;;;;;;;5.84;99.99;101941.45;177979;1257;44461;-84
2024/01/27 18:18:29;;;;;;;9.50;4.90;;;;;;;5.86;99.93;101946.86;178093;1256;59381;-84
2024/01/27 18:22:32;;;;;;;12.10;6.10;;;;;;;5.92;99.89;101948.61;178033;1257;46150;-84
2024/01/27 18:26:35;;;;;;;10.80;5.60;;;;;;;5.95;99.65;101957.66;178692;1256;46018;-84
2024/01/27 18:30:39;;;;;;;10.70;5.20;;;;;;;5.92;100.00;101955.47;178664;1256;46144;-84
2024/01/27 18:34:42;;;;;;;19.10;6.20;;;;;;;5.84;100.00;101968.42;177881;1256;45999;-83
2024/01/27 18:38:46;;;;;;;12.10;6.10;;;;;;;5.85;100.00;101967.17;177797;1256;58254;-82
2024/01/27 18:42:49;;;;;;;8.50;5.40;;;;;;;5.92;100.00;101979.23;177880;1256;46020;-84
2024/01/27 18:46:53;;;;;;;16.50;7.30;;;;;;;5.93;100.00;101979.55;178375;1256;46117;-83
2024/01/27 18:50:57;;;;;;;21.30;4.90;;;;;;;5.89;100.00;101989.04;177918;1256;46121;-83